sensor_id;sensor_type;location;lat;lon;timestamp;pressure;altitude;pressure_sealevel;temperature;humidity
17873;BME280;36318;42.620;23.338;2023-04-09T00:00:09;93082.06;;;5.35;100.00
17873;BME280;36318;42.620;23.338;2023-04-09T00:02:36;93077.94;;;5.33;100.00
17873;BME280;36318;42.620;23.338;2023-04-09T00:05:02;93073.81;;;5.30;100.00
17873;BME280;36318;42.620;23.338;2023-04-09T00:07:29;93081.06;;;5.38;100.00
17873;BME280;36318;42.620;23.338;2023-04-09T00:09:55;93074.47;;;5.34;100.00
17873;BME280;36318;42.620;23.338;2023-04-09T00:12:22;93080.88;;;5.41;100.00
17873;BME280;36318;42.620;23.338;2023-04-09T00:14:50;93082.72;;;5.53;100.00
17873;BME280;36318;42.620;23.338;2023-04-09T00:17:16;93087.56;;;5.58;100.00
17873;BME280;36318;42.620;23.338;2023-04-09T00:19:43;93094.03;;;5.65;100.00
17873;BME280;36318;42.620;23.338;2023-04-09T00:22:09;93096.94;;;5.73;100.00
17873;BME280;36318;42.620;23.338;2023-04-09T00:24:36;93091.31;;;5.80;100.00
17873;BME280;36318;42.620;23.338;2023-04-09T00:27:03;93090.75;;;5.89;100.00
17873;BME280;36318;42.620;23.338;2023-04-09T00:29:29;93092.41;;;5.90;100.00
17873;BME280;36318;42.620;23.338;2023-04-09T00:31:57;93090.66;;;5.91;100.00
17873;BME280;36318;42.620;23.338;2023-04-09T00:34:24;93098.50;;;5.75;100.00
17873;BME280;36318;42.620;23.338;2023-04-09T00:36:50;93096.19;;;5.85;100.00
17873;BME280;36318;42.620;23.338;2023-04-09T00:39:17;93099.31;;;5.90;100.00
17873;BME280;36318;42.620;23.338;2023-04-09T00:41:43;93089.66;;;5.93;100.00
17873;BME280;36318;42.620;23.338;2023-04-09T00:44:10;93097.28;;;5.95;100.00
17873;BME280;36318;42.620;23.338;2023-04-09T00:46:36;93085.53;;;5.91;100.00
17873;BME280;36318;42.620;23.338;2023-04-09T00:49:04;93069.22;;;5.76;100.00
17873;BME280;36318;42.620;23.338;2023-04-09T00:51:31;93094.06;;;5.91;100.00
17873;BME280;36318;42.620;23.338;2023-04-09T00:53:58;93095.91;;;5.89;100.00
17873;BME280;36318;42.620;23.338;2023-04-09T00:56:25;93097.03;;;5.85;100.00
17873;BME280;36318;42.620;23.338;2023-04-09T00:58:52;93098.03;;;5.83;100.00
17873;BME280;36318;42.620;23.338;2023-04-09T01:01:19;93094.56;;;5.56;100.00
17873;BME280;36318;42.620;23.338;2023-04-09T01:03:45;93093.91;;;5.52;100.00
17873;BME280;36318;42.620;23.338;2023-04-09T01:06:16;93094.28;;;5.46;100.00
17873;BME280;36318;42.620;23.338;2023-04-09T01:08:48;93106.72;;;5.54;100.00
17873;BME280;36318;42.620;23.338;2023-04-09T01:11:19;93097.63;;;5.48;100.00
17873;BME280;36318;42.620;23.338;2023-04-09T01:13:52;93096.97;;;5.44;100.00
17873;BME280;36318;42.620;23.338;2023-04-09T01:16:21;93104.22;;;5.38;100.00
17873;BME280;36318;42.620;23.338;2023-04-09T01:18:49;93104.97;;;5.26;100.00
17873;BME280;36318;42.620;23.338;2023-04-09T01:21:18;93105.44;;;5.18;100.00
17873;BME280;36318;42.620;23.338;2023-04-09T01:23:46;93108.28;;;5.14;100.00
17873;BME280;36318;42.620;23.338;2023-04-09T01:26:16;93100.19;;;5.06;100.00
17873;BME280;36318;42.620;23.338;2023-04-09T01:28:47;93100.56;;;5.00;100.00
17873;BME280;36318;42.620;23.338;2023-04-09T01:31:16;93105.88;;;4.97;100.00
17873;BME280;36318;42.620;23.338;2023-04-09T01:33:43;93107.16;;;4.90;100.00
17873;BME280;36318;42.620;23.338;2023-04-09T01:36:10;93102.47;;;4.96;100.00
17873;BME280;36318;42.620;23.338;2023-04-09T01:38:38;93105.53;;;5.03;100.00
17873;BME280;36318;42.620;23.338;2023-04-09T01:41:05;93102.84;;;5.04;100.00
17873;BME280;36318;42.620;23.338;2023-04-09T01:43:33;93098.91;;;4.99;100.00
17873;BME280;36318;42.620;23.338;2023-04-09T01:46:01;93101.94;;;4.91;100.00
17873;BME280;36318;42.620;23.338;2023-04-09T01:48:28;93104.41;;;4.93;100.00
17873;BME280;36318;42.620;23.338;2023-04-09T01:50:55;93105.22;;;4.93;100.00
17873;BME280;36318;42.620;23.338;2023-04-09T01:53:22;93104.50;;;4.91;100.00
17873;BME280;36318;42.620;23.338;2023-04-09T01:55:48;93107.78;;;4.79;100.00
17873;BME280;36318;42.620;23.338;2023-04-09T01:58:15;93107.31;;;4.72;100.00
17873;BME280;36318;42.620;23.338;2023-04-09T02:00:43;93109.97;;;4.71;100.00
17873;BME280;36318;42.620;23.338;2023-04-09T02:03:14;93112.81;;;4.66;100.00
17873;BME280;36318;42.620;23.338;2023-04-09T02:05:43;93113.16;;;4.60;100.00
17873;BME280;36318;42.620;23.338;2023-04-09T02:08:11;93113.72;;;4.51;100.00
17873;BME280;36318;42.620;23.338;2023-04-09T02:10:38;93114.59;;;4.50;100.00
17873;BME280;36318;42.620;23.338;2023-04-09T02:13:05;93111.75;;;4.55;100.00
17873;BME280;36318;42.620;23.338;2023-04-09T02:15:35;93111.69;;;4.56;100.00
17873;BME280;36318;42.620;23.338;2023-04-09T02:18:03;93110.38;;;4.49;100.00
17873;BME280;36318;42.620;23.338;2023-04-09T02:20:31;93113.78;;;4.50;100.00
17873;BME280;36318;42.620;23.338;2023-04-09T02:22:57;93116.06;;;4.54;100.00
17873;BME280;36318;42.620;23.338;2023-04-09T02:25:24;93108.38;;;4.54;100.00
17873;BME280;36318;42.620;23.338;2023-04-09T02:27:51;93111.88;;;4.53;100.00
17873;BME280;36318;42.620;23.338;2023-04-09T02:30:18;93107.81;;;4.49;100.00
17873;BME280;36318;42.620;23.338;2023-04-09T02:32:44;93104.59;;;4.46;100.00
17873;BME280;36318;42.620;23.338;2023-04-09T02:35:11;93106.41;;;4.44;100.00
17873;BME280;36318;42.620;23.338;2023-04-09T02:37:40;93100.25;;;4.46;100.00
17873;BME280;36318;42.620;23.338;2023-04-09T02:40:06;93105.50;;;4.45;100.00
17873;BME280;36318;42.620;23.338;2023-04-09T02:42:34;93105.59;;;4.43;100.00
17873;BME280;36318;42.620;23.338;2023-04-09T02:45:00;93103.44;;;4.36;100.00
17873;BME280;36318;42.620;23.338;2023-04-09T02:47:27;93099.06;;;4.38;100.00
17873;BME280;36318;42.620;23.338;2023-04-09T02:49:54;93092.81;;;4.42;100.00
17873;BME280;36318;42.620;23.338;2023-04-09T02:52:21;93095.41;;;4.42;100.00
17873;BME280;36318;42.620;23.338;2023-04-09T02:54:50;93093.66;;;4.42;100.00
17873;BME280;36318;42.620;23.338;2023-04-09T02:57:17;93089.69;;;4.37;100.00
17873;BME280;36318;42.620;23.338;2023-04-09T02:59:43;93092.16;;;4.38;100.00
17873;BME280;36318;42.620;23.338;2023-04-09T03:02:10;93093.44;;;4.31;100.00
17873;BME280;36318;42.620;23.338;2023-04-09T03:04:37;93091.78;;;4.30;100.00
17873;BME280;36318;42.620;23.338;2023-04-09T03:07:03;93090.38;;;4.24;100.00
17873;BME280;36318;42.620;23.338;2023-04-09T03:09:30;93094.63;;;4.26;100.00
17873;BME280;36318;42.620;23.338;2023-04-09T03:11:58;93091.97;;;4.27;100.00
17873;BME280;36318;42.620;23.338;2023-04-09T03:14:26;93097.31;;;4.38;100.00
17873;BME280;36318;42.620;23.338;2023-04-09T03:16:52;93095.88;;;4.48;100.00
17873;BME280;36318;42.620;23.338;2023-04-09T03:19:19;93092.59;;;4.60;100.00
17873;BME280;36318;42.620;23.338;2023-04-09T03:21:45;93096.66;;;4.64;100.00
17873;BME280;36318;42.620;23.338;2023-04-09T03:24:13;93090.16;;;4.73;100.00
17873;BME280;36318;42.620;23.338;2023-04-09T03:26:39;93084.56;;;4.80;100.00
17873;BME280;36318;42.620;23.338;2023-04-09T03:29:07;93092.66;;;4.89;100.00
17873;BME280;36318;42.620;23.338;2023-04-09T03:31:34;93096.13;;;4.88;100.00
17873;BME280;36318;42.620;23.338;2023-04-09T03:34:00;93096.63;;;4.94;100.00
17873;BME280;36318;42.620;23.338;2023-04-09T03:36:27;93095.78;;;4.94;100.00
17873;BME280;36318;42.620;23.338;2023-04-09T03:38:54;93093.75;;;4.99;100.00
17873;BME280;36318;42.620;23.338;2023-04-09T03:41:20;93098.72;;;5.02;100.00
17873;BME280;36318;42.620;23.338;2023-04-09T03:43:47;93097.44;;;4.95;100.00
17873;BME280;36318;42.620;23.338;2023-04-09T03:46:15;93105.31;;;4.77;100.00
17873;BME280;36318;42.620;23.338;2023-04-09T03:48:42;93105.88;;;4.82;100.00
17873;BME280;36318;42.620;23.338;2023-04-09T03:51:10;93109.00;;;4.88;100.00
17873;BME280;36318;42.620;23.338;2023-04-09T03:53:36;93111.91;;;4.81;100.00
17873;BME280;36318;42.620;23.338;2023-04-09T03:56:03;93110.09;;;4.83;100.00
17873;BME280;36318;42.620;23.338;2023-04-09T03:58:29;93104.84;;;4.85;100.00
17873;BME280;36318;42.620;23.338;2023-04-09T04:00:56;93109.94;;;4.87;100.00
17873;BME280;36318;42.620;23.338;2023-04-09T04:03:24;93106.25;;;4.91;100.00
17873;BME280;36318;42.620;23.338;2023-04-09T04:05:50;93109.53;;;4.93;100.00
17873;BME280;36318;42.620;23.338;2023-04-09T04:08:17;93109.28;;;4.97;100.00
17873;BME280;36318;42.620;23.338;2023-04-09T04:10:44;93109.19;;;4.99;100.00
17873;BME280;36318;42.620;23.338;2023-04-09T04:13:10;93107.34;;;5.01;100.00
17873;BME280;36318;42.620;23.338;2023-04-09T04:15:38;93109.19;;;4.99;100.00
17873;BME280;36318;42.620;23.338;2023-04-09T04:18:04;93111.22;;;5.08;100.00
17873;BME280;36318;42.620;23.338;2023-04-09T04:20:32;93108.56;;;5.23;100.00
17873;BME280;36318;42.620;23.338;2023-04-09T04:22:59;93106.00;;;5.37;100.00
17873;BME280;36318;42.620;23.338;2023-04-09T04:25:26;93115.63;;;5.48;100.00
17873;BME280;36318;42.620;23.338;2023-04-09T04:27:52;93109.00;;;5.58;100.00
17873;BME280;36318;42.620;23.338;2023-04-09T04:30:19;93121.75;;;5.74;100.00
17873;BME280;36318;42.620;23.338;2023-04-09T04:32:46;93118.63;;;5.83;100.00
17873;BME280;36318;42.620;23.338;2023-04-09T04:35:12;93113.56;;;5.95;100.00
17873;BME280;36318;42.620;23.338;2023-04-09T04:37:40;93108.94;;;6.00;100.00
17873;BME280;36318;42.620;23.338;2023-04-09T04:40:08;93120.59;;;6.06;100.00
17873;BME280;36318;42.620;23.338;2023-04-09T04:42:34;93118.09;;;6.19;100.00
17873;BME280;36318;42.620;23.338;2023-04-09T04:45:01;93114.09;;;6.27;100.00
17873;BME280;36318;42.620;23.338;2023-04-09T04:47:27;93126.84;;;6.43;100.00
17873;BME280;36318;42.620;23.338;2023-04-09T04:49:54;93119.59;;;6.62;100.00
17873;BME280;36318;42.620;23.338;2023-04-09T04:52:20;93131.13;;;6.56;100.00
17873;BME280;36318;42.620;23.338;2023-04-09T04:54:48;93132.00;;;6.82;100.00
17873;BME280;36318;42.620;23.338;2023-04-09T04:57:15;93121.34;;;6.87;100.00
17873;BME280;36318;42.620;23.338;2023-04-09T04:59:41;93129.13;;;6.99;100.00
17873;BME280;36318;42.620;23.338;2023-04-09T05:02:08;93128.81;;;7.16;100.00
17873;BME280;36318;42.620;23.338;2023-04-09T05:04:35;93127.06;;;7.17;100.00
17873;BME280;36318;42.620;23.338;2023-04-09T05:07:01;93125.72;;;7.11;100.00
17873;BME280;36318;42.620;23.338;2023-04-09T05:09:28;93127.19;;;7.15;100.00
17873;BME280;36318;42.620;23.338;2023-04-09T05:11:56;93121.72;;;7.20;100.00
17873;BME280;36318;42.620;23.338;2023-04-09T05:14:22;93130.78;;;7.38;100.00
17873;BME280;36318;42.620;23.338;2023-04-09T05:16:49;93130.69;;;7.40;100.00
17873;BME280;36318;42.620;23.338;2023-04-09T05:19:16;93131.00;;;7.48;100.00
17873;BME280;36318;42.620;23.338;2023-04-09T05:21:42;93128.53;;;7.34;100.00
17873;BME280;36318;42.620;23.338;2023-04-09T05:24:09;93130.38;;;7.44;100.00
17873;BME280;36318;42.620;23.338;2023-04-09T05:26:35;93135.13;;;7.50;100.00
17873;BME280;36318;42.620;23.338;2023-04-09T05:29:03;93131.03;;;7.35;100.00
17873;BME280;36318;42.620;23.338;2023-04-09T05:31:30;93130.97;;;7.60;100.00
17873;BME280;36318;42.620;23.338;2023-04-09T05:33:57;93129.81;;;7.77;100.00
17873;BME280;36318;42.620;23.338;2023-04-09T05:36:23;93131.13;;;7.95;100.00
17873;BME280;36318;42.620;23.338;2023-04-09T05:38:50;93134.38;;;7.86;100.00
17873;BME280;36318;42.620;23.338;2023-04-09T05:41:16;93137.41;;;7.67;100.00
17873;BME280;36318;42.620;23.338;2023-04-09T05:43:44;93136.16;;;7.48;100.00
17873;BME280;36318;42.620;23.338;2023-04-09T05:46:11;93141.84;;;7.53;100.00
17873;BME280;36318;42.620;23.338;2023-04-09T05:48:38;93143.00;;;7.49;100.00
17873;BME280;36318;42.620;23.338;2023-04-09T05:51:05;93139.25;;;7.65;100.00
17873;BME280;36318;42.620;23.338;2023-04-09T05:53:32;93140.94;;;7.54;100.00
17873;BME280;36318;42.620;23.338;2023-04-09T05:55:59;93140.91;;;7.66;100.00
17873;BME280;36318;42.620;23.338;2023-04-09T05:58:27;93141.94;;;7.64;100.00
17873;BME280;36318;42.620;23.338;2023-04-09T06:00:53;93143.47;;;7.79;100.00
17873;BME280;36318;42.620;23.338;2023-04-09T06:03:21;93123.31;;;7.71;100.00
17873;BME280;36318;42.620;23.338;2023-04-09T06:05:48;93148.38;;;8.07;100.00
17873;BME280;36318;42.620;23.338;2023-04-09T06:08:14;93149.84;;;7.99;100.00
17873;BME280;36318;42.620;23.338;2023-04-09T06:10:41;93149.28;;;8.19;100.00
17873;BME280;36318;42.620;23.338;2023-04-09T06:13:08;93158.22;;;8.02;100.00
17873;BME280;36318;42.620;23.338;2023-04-09T06:15:36;93153.88;;;7.90;100.00
17873;BME280;36318;42.620;23.338;2023-04-09T06:18:02;93153.34;;;8.10;100.00
17873;BME280;36318;42.620;23.338;2023-04-09T06:20:30;93160.34;;;8.21;100.00
17873;BME280;36318;42.620;23.338;2023-04-09T06:22:57;93158.50;;;8.47;100.00
17873;BME280;36318;42.620;23.338;2023-04-09T06:25:23;93169.19;;;8.66;100.00
17873;BME280;36318;42.620;23.338;2023-04-09T06:27:50;93172.19;;;8.36;100.00
17873;BME280;36318;42.620;23.338;2023-04-09T06:30:17;93163.41;;;8.38;100.00
17873;BME280;36318;42.620;23.338;2023-04-09T06:32:44;93160.06;;;8.73;100.00
17873;BME280;36318;42.620;23.338;2023-04-09T06:35:12;93155.81;;;9.52;100.00
17873;BME280;36318;42.620;23.338;2023-04-09T06:37:41;93159.50;;;9.83;100.00
17873;BME280;36318;42.620;23.338;2023-04-09T06:40:07;93163.78;;;10.71;100.00
17873;BME280;36318;42.620;23.338;2023-04-09T06:42:34;93173.22;;;10.72;100.00
17873;BME280;36318;42.620;23.338;2023-04-09T06:45:02;93173.81;;;11.08;100.00
17873;BME280;36318;42.620;23.338;2023-04-09T06:47:32;93171.44;;;11.98;100.00
17873;BME280;36318;42.620;23.338;2023-04-09T06:49:59;93180.38;;;11.64;100.00
17873;BME280;36318;42.620;23.338;2023-04-09T06:52:25;93180.44;;;12.25;100.00
17873;BME280;36318;42.620;23.338;2023-04-09T06:54:53;93187.91;;;12.39;100.00
17873;BME280;36318;42.620;23.338;2023-04-09T06:57:20;93179.47;;;11.33;100.00
17873;BME280;36318;42.620;23.338;2023-04-09T06:59:46;93185.66;;;11.32;100.00
17873;BME280;36318;42.620;23.338;2023-04-09T07:02:13;93188.38;;;10.45;100.00
17873;BME280;36318;42.620;23.338;2023-04-09T07:04:39;93182.28;;;10.89;100.00
17873;BME280;36318;42.620;23.338;2023-04-09T07:07:06;93180.63;;;11.61;100.00
17873;BME280;36318;42.620;23.338;2023-04-09T07:09:33;93188.75;;;11.68;100.00
17873;BME280;36318;42.620;23.338;2023-04-09T07:12:02;93186.91;;;11.59;100.00
17873;BME280;36318;42.620;23.338;2023-04-09T07:14:28;93187.69;;;12.21;100.00
17873;BME280;36318;42.620;23.338;2023-04-09T07:16:55;93187.72;;;12.31;100.00
17873;BME280;36318;42.620;23.338;2023-04-09T07:19:21;93194.47;;;10.77;100.00
17873;BME280;36318;42.620;23.338;2023-04-09T07:21:48;93189.09;;;10.14;100.00
17873;BME280;36318;42.620;23.338;2023-04-09T07:24:15;93189.81;;;10.05;100.00
17873;BME280;36318;42.620;23.338;2023-04-09T07:26:41;93191.16;;;9.53;100.00
17873;BME280;36318;42.620;23.338;2023-04-09T07:29:09;93189.91;;;9.24;100.00
17873;BME280;36318;42.620;23.338;2023-04-09T07:31:36;93188.09;;;9.71;100.00
17873;BME280;36318;42.620;23.338;2023-04-09T07:34:02;93201.22;;;9.80;100.00
17873;BME280;36318;42.620;23.338;2023-04-09T07:36:29;93199.31;;;10.60;100.00
17873;BME280;36318;42.620;23.338;2023-04-09T07:38:55;93202.88;;;9.81;100.00
17873;BME280;36318;42.620;23.338;2023-04-09T07:41:22;93201.56;;;9.65;100.00
17873;BME280;36318;42.620;23.338;2023-04-09T07:43:49;93195.47;;;9.42;100.00
17873;BME280;36318;42.620;23.338;2023-04-09T07:46:20;93195.19;;;9.80;100.00
17873;BME280;36318;42.620;23.338;2023-04-09T07:48:46;93198.78;;;9.44;100.00
17873;BME280;36318;42.620;23.338;2023-04-09T07:51:14;93200.28;;;9.35;100.00
17873;BME280;36318;42.620;23.338;2023-04-09T07:53:40;93205.19;;;9.62;100.00
17873;BME280;36318;42.620;23.338;2023-04-09T07:56:07;93226.41;;;9.21;100.00
17873;BME280;36318;42.620;23.338;2023-04-09T07:58:34;93210.53;;;9.83;100.00
17873;BME280;36318;42.620;23.338;2023-04-09T08:01:02;93207.56;;;9.87;100.00
17873;BME280;36318;42.620;23.338;2023-04-09T08:03:30;93212.81;;;10.32;100.00
17873;BME280;36318;42.620;23.338;2023-04-09T08:05:56;93214.78;;;10.61;100.00
17873;BME280;36318;42.620;23.338;2023-04-09T08:08:23;93215.63;;;10.62;100.00
17873;BME280;36318;42.620;23.338;2023-04-09T08:10:49;93218.94;;;10.31;100.00
17873;BME280;36318;42.620;23.338;2023-04-09T08:13:16;93220.69;;;10.52;100.00
17873;BME280;36318;42.620;23.338;2023-04-09T08:15:43;93214.94;;;10.27;100.00
17873;BME280;36318;42.620;23.338;2023-04-09T08:18:09;93214.09;;;10.48;100.00
17873;BME280;36318;42.620;23.338;2023-04-09T08:20:37;93212.00;;;10.96;100.00
17873;BME280;36318;42.620;23.338;2023-04-09T08:23:09;93218.72;;;10.99;100.00
17873;BME280;36318;42.620;23.338;2023-04-09T08:25:35;93217.75;;;11.11;100.00
17873;BME280;36318;42.620;23.338;2023-04-09T08:28:02;93215.03;;;11.01;100.00
17873;BME280;36318;42.620;23.338;2023-04-09T08:30:29;93214.31;;;10.67;100.00
17873;BME280;36318;42.620;23.338;2023-04-09T08:32:58;93216.56;;;11.04;100.00
17873;BME280;36318;42.620;23.338;2023-04-09T08:35:24;93212.59;;;11.52;100.00
17873;BME280;36318;42.620;23.338;2023-04-09T08:37:54;93215.63;;;10.62;100.00
17873;BME280;36318;42.620;23.338;2023-04-09T08:40:20;93212.44;;;10.25;100.00
17873;BME280;36318;42.620;23.338;2023-04-09T08:42:47;93212.50;;;9.79;100.00
17873;BME280;36318;42.620;23.338;2023-04-09T08:45:16;93209.13;;;10.12;100.00
17873;BME280;36318;42.620;23.338;2023-04-09T08:47:43;93207.50;;;10.44;100.00
17873;BME280;36318;42.620;23.338;2023-04-09T08:50:10;93209.91;;;11.63;100.00
17873;BME280;36318;42.620;23.338;2023-04-09T08:52:37;93212.78;;;11.39;100.00
17873;BME280;36318;42.620;23.338;2023-04-09T08:55:06;93212.84;;;11.17;100.00
17873;BME280;36318;42.620;23.338;2023-04-09T08:57:35;93211.22;;;11.16;100.00
17873;BME280;36318;42.620;23.338;2023-04-09T09:00:02;93204.63;;;10.69;100.00
17873;BME280;36318;42.620;23.338;2023-04-09T09:02:29;93210.28;;;11.06;100.00
17873;BME280;36318;42.620;23.338;2023-04-09T09:04:56;93219.38;;;11.12;100.00
17873;BME280;36318;42.620;23.338;2023-04-09T09:07:25;93206.47;;;11.21;100.00
17873;BME280;36318;42.620;23.338;2023-04-09T09:09:53;93208.81;;;11.77;100.00
17873;BME280;36318;42.620;23.338;2023-04-09T09:12:31;93202.34;;;11.71;100.00
17873;BME280;36318;42.620;23.338;2023-04-09T09:14:58;93201.16;;;11.75;100.00
17873;BME280;36318;42.620;23.338;2023-04-09T09:17:25;93198.50;;;11.34;100.00
17873;BME280;36318;42.620;23.338;2023-04-09T09:19:51;93201.88;;;11.14;100.00
17873;BME280;36318;42.620;23.338;2023-04-09T09:22:18;93191.53;;;11.55;100.00
17873;BME280;36318;42.620;23.338;2023-04-09T09:24:45;93204.63;;;11.12;100.00
17873;BME280;36318;42.620;23.338;2023-04-09T09:27:13;93194.41;;;11.00;100.00
17873;BME280;36318;42.620;23.338;2023-04-09T09:29:57;93197.59;;;11.24;100.00
17873;BME280;36318;42.620;23.338;2023-04-09T09:32:23;93193.56;;;10.99;100.00
17873;BME280;36318;42.620;23.338;2023-04-09T09:34:56;93187.34;;;10.91;100.00
17873;BME280;36318;42.620;23.338;2023-04-09T09:37:25;93185.22;;;11.48;100.00
17873;BME280;36318;42.620;23.338;2023-04-09T09:39:52;93184.19;;;12.02;100.00
17873;BME280;36318;42.620;23.338;2023-04-09T09:42:19;93178.88;;;12.43;98.30
17873;BME280;36318;42.620;23.338;2023-04-09T09:44:46;93180.34;;;11.75;100.00
17873;BME280;36318;42.620;23.338;2023-04-09T09:47:14;93178.00;;;12.33;96.54
17873;BME280;36318;42.620;23.338;2023-04-09T09:49:42;93180.28;;;12.56;93.72
17873;BME280;36318;42.620;23.338;2023-04-09T09:52:09;93171.84;;;12.04;94.81
17873;BME280;36318;42.620;23.338;2023-04-09T09:54:37;93172.56;;;11.75;94.22
17873;BME280;36318;42.620;23.338;2023-04-09T09:57:06;93175.03;;;12.47;96.90
17873;BME280;36318;42.620;23.338;2023-04-09T09:59:33;93167.81;;;12.60;91.32
17873;BME280;36318;42.620;23.338;2023-04-09T10:02:03;93175.81;;;12.28;91.63
17873;BME280;36318;42.620;23.338;2023-04-09T10:04:32;93168.41;;;12.73;91.09
17873;BME280;36318;42.620;23.338;2023-04-09T10:07:00;93171.16;;;12.32;92.39
17873;BME280;36318;42.620;23.338;2023-04-09T10:09:28;93172.28;;;12.39;92.73
17873;BME280;36318;42.620;23.338;2023-04-09T10:11:55;93166.75;;;11.51;95.54
17873;BME280;36318;42.620;23.338;2023-04-09T10:14:23;93166.38;;;11.97;98.30
17873;BME280;36318;42.620;23.338;2023-04-09T10:16:51;93166.56;;;11.84;92.94
17873;BME280;36318;42.620;23.338;2023-04-09T10:19:18;93160.28;;;11.66;90.32
17873;BME280;36318;42.620;23.338;2023-04-09T10:21:49;93160.53;;;11.43;95.35
17873;BME280;36318;42.620;23.338;2023-04-09T10:24:18;93161.72;;;12.00;90.82
17873;BME280;36318;42.620;23.338;2023-04-09T10:26:45;93159.09;;;12.31;86.10
17873;BME280;36318;42.620;23.338;2023-04-09T10:29:12;93165.44;;;12.38;87.88
17873;BME280;36318;42.620;23.338;2023-04-09T10:31:46;93156.13;;;12.35;81.24
17873;BME280;36318;42.620;23.338;2023-04-09T10:34:14;93159.63;;;12.25;83.64
17873;BME280;36318;42.620;23.338;2023-04-09T10:36:41;93159.50;;;12.26;79.93
17873;BME280;36318;42.620;23.338;2023-04-09T10:39:11;93158.31;;;11.79;79.68
17873;BME280;36318;42.620;23.338;2023-04-09T10:41:38;93156.41;;;11.61;80.48
17873;BME280;36318;42.620;23.338;2023-04-09T10:44:05;93152.53;;;11.96;80.36
17873;BME280;36318;42.620;23.338;2023-04-09T10:46:44;93142.03;;;11.77;77.92
17873;BME280;36318;42.620;23.338;2023-04-09T10:49:13;93149.19;;;11.85;79.34
17873;BME280;36318;42.620;23.338;2023-04-09T10:51:40;93147.66;;;11.82;77.78
17873;BME280;36318;42.620;23.338;2023-04-09T10:57:11;93137.69;;;11.87;76.49
17873;BME280;36318;42.620;23.338;2023-04-09T10:59:39;93141.03;;;11.99;76.74
17873;BME280;36318;42.620;23.338;2023-04-09T11:02:07;93135.97;;;11.97;76.34
17873;BME280;36318;42.620;23.338;2023-04-09T11:04:38;93133.25;;;12.09;75.00
17873;BME280;36318;42.620;23.338;2023-04-09T11:07:06;93126.34;;;12.19;74.27
17873;BME280;36318;42.620;23.338;2023-04-09T11:09:34;93130.50;;;12.00;74.13
17873;BME280;36318;42.620;23.338;2023-04-09T11:12:00;93135.44;;;12.04;75.22
17873;BME280;36318;42.620;23.338;2023-04-09T11:14:29;93123.16;;;11.75;74.77
17873;BME280;36318;42.620;23.338;2023-04-09T11:16:55;93124.53;;;11.59;76.69
17873;BME280;36318;42.620;23.338;2023-04-09T11:19:22;93128.50;;;11.63;79.82
17873;BME280;36318;42.620;23.338;2023-04-09T11:21:49;93128.69;;;11.91;78.63
17873;BME280;36318;42.620;23.338;2023-04-09T11:24:17;93126.09;;;11.91;77.77
17873;BME280;36318;42.620;23.338;2023-04-09T11:26:43;93120.38;;;11.97;77.79
17873;BME280;36318;42.620;23.338;2023-04-09T11:29:12;93123.13;;;11.55;78.49
17873;BME280;36318;42.620;23.338;2023-04-09T11:31:41;93118.31;;;11.50;79.21
17873;BME280;36318;42.620;23.338;2023-04-09T11:34:08;93125.59;;;11.56;79.89
17873;BME280;36318;42.620;23.338;2023-04-09T11:36:35;93116.38;;;11.43;81.70
17873;BME280;36318;42.620;23.338;2023-04-09T11:39:01;93122.25;;;11.24;82.79
17873;BME280;36318;42.620;23.338;2023-04-09T11:41:32;93114.53;;;11.33;88.97
17873;BME280;36318;42.620;23.338;2023-04-09T11:44:00;93118.59;;;11.26;89.36
17873;BME280;36318;42.620;23.338;2023-04-09T11:46:27;93117.94;;;11.13;87.06
17873;BME280;36318;42.620;23.338;2023-04-09T11:48:55;93117.50;;;11.29;92.22
17873;BME280;36318;42.620;23.338;2023-04-09T11:51:21;93116.44;;;11.31;93.63
17873;BME280;36318;42.620;23.338;2023-04-09T11:53:48;93115.09;;;11.37;89.65
17873;BME280;36318;42.620;23.338;2023-04-09T11:56:15;93106.81;;;11.43;92.74
17873;BME280;36318;42.620;23.338;2023-04-09T11:58:43;93105.56;;;11.47;88.84
17873;BME280;36318;42.620;23.338;2023-04-09T12:01:11;93107.53;;;11.55;87.99
17873;BME280;36318;42.620;23.338;2023-04-09T12:03:37;93110.91;;;11.25;89.26
17873;BME280;36318;42.620;23.338;2023-04-09T12:06:06;93103.06;;;10.95;91.94
17873;BME280;36318;42.620;23.338;2023-04-09T12:08:33;93094.94;;;11.09;93.79
17873;BME280;36318;42.620;23.338;2023-04-09T12:11:08;93100.31;;;11.17;91.09
17873;BME280;36318;42.620;23.338;2023-04-09T12:13:35;93102.81;;;11.18;87.44
17873;BME280;36318;42.620;23.338;2023-04-09T12:16:04;93099.25;;;11.40;85.14
17873;BME280;36318;42.620;23.338;2023-04-09T12:18:30;93102.66;;;11.20;83.98
17873;BME280;36318;42.620;23.338;2023-04-09T12:21:01;93099.78;;;11.64;84.89
17873;BME280;36318;42.620;23.338;2023-04-09T12:23:29;93105.28;;;11.91;81.77
17873;BME280;36318;42.620;23.338;2023-04-09T12:25:56;93099.19;;;11.81;80.59
17873;BME280;36318;42.620;23.338;2023-04-09T12:28:25;93103.97;;;11.76;83.76
17873;BME280;36318;42.620;23.338;2023-04-09T12:30:51;93099.59;;;11.77;80.80
17873;BME280;36318;42.620;23.338;2023-04-09T12:33:18;93101.38;;;11.76;78.48
17873;BME280;36318;42.620;23.338;2023-04-09T12:35:45;93095.66;;;11.82;76.89
17873;BME280;36318;42.620;23.338;2023-04-09T12:38:12;93097.06;;;11.86;77.07
17873;BME280;36318;42.620;23.338;2023-04-09T12:40:39;93084.03;;;11.56;78.59
17873;BME280;36318;42.620;23.338;2023-04-09T12:43:06;93089.97;;;11.68;75.57
17873;BME280;36318;42.620;23.338;2023-04-09T12:45:33;93093.22;;;11.90;77.53
17873;BME280;36318;42.620;23.338;2023-04-09T12:47:59;93080.19;;;11.60;78.33
17873;BME280;36318;42.620;23.338;2023-04-09T12:50:26;93088.63;;;11.73;79.02